sensor_id;sensor_type;location;lat;lon;timestamp;P1;durP1;ratioP1;P2;durP2;ratioP2
76761;SDS011;65705;51.032;13.790;2023-03-17T00:00:05;9.70;;;3.30;;
76761;SDS011;65705;51.032;13.790;2023-03-17T00:02:37;7.28;;;2.88;;
76761;SDS011;65705;51.032;13.790;2023-03-17T00:05:39;9.10;;;3.40;;
76761;SDS011;65705;51.032;13.790;2023-03-17T00:10:48;9.65;;;2.88;;
76761;SDS011;65705;51.032;13.790;2023-03-17T00:13:14;9.15;;;3.60;;
76761;SDS011;65705;51.032;13.790;2023-03-17T00:15:40;11.30;;;4.63;;
76761;SDS011;65705;51.032;13.790;2023-03-17T00:18:11;10.68;;;3.83;;
76761;SDS011;65705;51.032;13.790;2023-03-17T00:20:40;7.55;;;3.13;;
76761;SDS011;65705;51.032;13.790;2023-03-17T00:23:07;11.88;;;3.75;;
76761;SDS011;65705;51.032;13.790;2023-03-17T00:25:41;9.35;;;3.50;;
76761;SDS011;65705;51.032;13.790;2023-03-17T00:28:11;9.40;;;4.00;;
76761;SDS011;65705;51.032;13.790;2023-03-17T00:30:40;8.50;;;3.55;;
76761;SDS011;65705;51.032;13.790;2023-03-17T00:33:08;11.48;;;4.15;;
76761;SDS011;65705;51.032;13.790;2023-03-17T00:35:35;9.27;;;3.60;;
76761;SDS011;65705;51.032;13.790;2023-03-17T00:38:01;8.25;;;3.50;;
76761;SDS011;65705;51.032;13.790;2023-03-17T00:40:29;10.63;;;3.83;;
76761;SDS011;65705;51.032;13.790;2023-03-17T00:42:55;8.75;;;3.58;;
76761;SDS011;65705;51.032;13.790;2023-03-17T00:45:24;10.90;;;3.45;;
76761;SDS011;65705;51.032;13.790;2023-03-17T00:47:52;9.50;;;3.85;;
76761;SDS011;65705;51.032;13.790;2023-03-17T00:50:24;10.55;;;3.88;;
76761;SDS011;65705;51.032;13.790;2023-03-17T00:52:53;8.55;;;3.42;;
76761;SDS011;65705;51.032;13.790;2023-03-17T00:55:23;14.70;;;3.65;;
76761;SDS011;65705;51.032;13.790;2023-03-17T00:57:52;8.35;;;3.28;;
76761;SDS011;65705;51.032;13.790;2023-03-17T01:02:51;9.85;;;3.55;;
76761;SDS011;65705;51.032;13.790;2023-03-17T01:05:20;9.43;;;3.35;;
76761;SDS011;65705;51.032;13.790;2023-03-17T01:07:47;12.07;;;3.97;;
76761;SDS011;65705;51.032;13.790;2023-03-17T01:10:18;10.20;;;3.65;;
76761;SDS011;65705;51.032;13.790;2023-03-17T01:12:52;10.02;;;4.00;;
76761;SDS011;65705;51.032;13.790;2023-03-17T01:15:19;10.27;;;3.70;;
76761;SDS011;65705;51.032;13.790;2023-03-17T01:17:46;9.50;;;3.92;;
76761;SDS011;65705;51.032;13.790;2023-03-17T01:20:21;7.43;;;3.13;;
76761;SDS011;65705;51.032;13.790;2023-03-17T01:22:48;7.45;;;2.88;;
76761;SDS011;65705;51.032;13.790;2023-03-17T01:25:15;11.88;;;3.75;;
76761;SDS011;65705;51.032;13.790;2023-03-17T01:27:42;7.60;;;3.17;;
76761;SDS011;65705;51.032;13.790;2023-03-17T01:32:45;9.38;;;3.85;;
76761;SDS011;65705;51.032;13.790;2023-03-17T01:35:11;9.15;;;3.45;;
76761;SDS011;65705;51.032;13.790;2023-03-17T01:37:38;8.15;;;3.40;;
76761;SDS011;65705;51.032;13.790;2023-03-17T01:40:04;8.45;;;3.45;;
76761;SDS011;65705;51.032;13.790;2023-03-17T01:42:34;9.93;;;2.97;;
76761;SDS011;65705;51.032;13.790;2023-03-17T01:45:02;9.82;;;3.17;;
76761;SDS011;65705;51.032;13.790;2023-03-17T01:47:32;10.02;;;4.30;;
76761;SDS011;65705;51.032;13.790;2023-03-17T01:49:59;9.48;;;3.58;;
76761;SDS011;65705;51.032;13.790;2023-03-17T01:52:30;10.82;;;3.35;;
76761;SDS011;65705;51.032;13.790;2023-03-17T01:57:44;8.73;;;3.30;;
76761;SDS011;65705;51.032;13.790;2023-03-17T02:00:16;9.35;;;3.70;;
76761;SDS011;65705;51.032;13.790;2023-03-17T02:02:45;6.70;;;3.40;;
76761;SDS011;65705;51.032;13.790;2023-03-17T02:05:14;7.85;;;3.13;;
76761;SDS011;65705;51.032;13.790;2023-03-17T02:07:42;6.90;;;2.78;;
76761;SDS011;65705;51.032;13.790;2023-03-17T02:10:09;9.70;;;2.70;;
76761;SDS011;65705;51.032;13.790;2023-03-17T02:12:37;8.23;;;3.22;;
76761;SDS011;65705;51.032;13.790;2023-03-17T02:15:08;9.88;;;3.55;;
76761;SDS011;65705;51.032;13.790;2023-03-17T02:17:35;8.35;;;2.95;;
76761;SDS011;65705;51.032;13.790;2023-03-17T02:20:11;10.05;;;3.78;;
76761;SDS011;65705;51.032;13.790;2023-03-17T02:22:47;6.18;;;2.83;;
76761;SDS011;65705;51.032;13.790;2023-03-17T02:25:17;9.48;;;3.05;;
76761;SDS011;65705;51.032;13.790;2023-03-17T02:27:45;10.23;;;3.03;;
76761;SDS011;65705;51.032;13.790;2023-03-17T02:30:15;9.07;;;3.05;;
76761;SDS011;65705;51.032;13.790;2023-03-17T02:32:42;10.65;;;3.15;;
76761;SDS011;65705;51.032;13.790;2023-03-17T02:35:07;8.50;;;2.97;;
76761;SDS011;65705;51.032;13.790;2023-03-17T02:37:36;7.75;;;2.83;;
76761;SDS011;65705;51.032;13.790;2023-03-17T02:40:03;7.10;;;2.88;;
76761;SDS011;65705;51.032;13.790;2023-03-17T02:42:30;8.85;;;3.00;;
76761;SDS011;65705;51.032;13.790;2023-03-17T02:44:57;9.18;;;3.00;;
76761;SDS011;65705;51.032;13.790;2023-03-17T02:47:23;10.15;;;3.13;;
76761;SDS011;65705;51.032;13.790;2023-03-17T02:49:49;8.93;;;3.70;;
76761;SDS011;65705;51.032;13.790;2023-03-17T02:52:15;7.65;;;3.00;;
76761;SDS011;65705;51.032;13.790;2023-03-17T02:54:41;5.18;;;2.50;;
76761;SDS011;65705;51.032;13.790;2023-03-17T02:57:07;11.18;;;3.15;;
76761;SDS011;65705;51.032;13.790;2023-03-17T02:59:34;7.57;;;2.83;;
76761;SDS011;65705;51.032;13.790;2023-03-17T03:02:00;7.60;;;2.78;;
76761;SDS011;65705;51.032;13.790;2023-03-17T03:04:26;7.78;;;2.83;;
76761;SDS011;65705;51.032;13.790;2023-03-17T03:06:52;6.53;;;2.30;;
76761;SDS011;65705;51.032;13.790;2023-03-17T03:09:19;7.60;;;2.80;;
76761;SDS011;65705;51.032;13.790;2023-03-17T03:11:45;6.63;;;2.53;;
76761;SDS011;65705;51.032;13.790;2023-03-17T03:14:12;7.68;;;2.80;;
76761;SDS011;65705;51.032;13.790;2023-03-17T03:16:38;7.50;;;3.00;;
76761;SDS011;65705;51.032;13.790;2023-03-17T03:19:04;8.98;;;3.20;;
76761;SDS011;65705;51.032;13.790;2023-03-17T03:21:31;10.18;;;3.13;;
76761;SDS011;65705;51.032;13.790;2023-03-17T03:23:57;8.85;;;3.15;;
76761;SDS011;65705;51.032;13.790;2023-03-17T03:26:22;6.63;;;2.90;;
76761;SDS011;65705;51.032;13.790;2023-03-17T03:28:48;7.60;;;2.90;;
76761;SDS011;65705;51.032;13.790;2023-03-17T03:31:15;8.30;;;2.80;;
76761;SDS011;65705;51.032;13.790;2023-03-17T03:33:41;9.93;;;3.25;;
76761;SDS011;65705;51.032;13.790;2023-03-17T03:36:07;8.98;;;2.75;;
76761;SDS011;65705;51.032;13.790;2023-03-17T03:38:34;10.10;;;3.17;;
76761;SDS011;65705;51.032;13.790;2023-03-17T03:41:00;7.38;;;3.10;;
76761;SDS011;65705;51.032;13.790;2023-03-17T03:43:26;9.05;;;3.10;;
76761;SDS011;65705;51.032;13.790;2023-03-17T03:45:52;6.90;;;3.05;;
76761;SDS011;65705;51.032;13.790;2023-03-17T03:48:19;9.15;;;3.22;;
76761;SDS011;65705;51.032;13.790;2023-03-17T03:50:46;10.73;;;3.47;;
76761;SDS011;65705;51.032;13.790;2023-03-17T03:53:12;7.13;;;3.15;;
76761;SDS011;65705;51.032;13.790;2023-03-17T03:55:39;8.52;;;3.05;;
76761;SDS011;65705;51.032;13.790;2023-03-17T03:58:05;8.05;;;3.55;;
76761;SDS011;65705;51.032;13.790;2023-03-17T04:00:31;6.28;;;2.55;;
76761;SDS011;65705;51.032;13.790;2023-03-17T04:02:57;8.93;;;3.70;;
76761;SDS011;65705;51.032;13.790;2023-03-17T04:05:23;7.78;;;2.85;;
76761;SDS011;65705;51.032;13.790;2023-03-17T04:07:48;9.63;;;2.88;;
76761;SDS011;65705;51.032;13.790;2023-03-17T04:10:14;8.05;;;3.40;;
76761;SDS011;65705;51.032;13.790;2023-03-17T04:12:41;11.27;;;3.33;;
76761;SDS011;65705;51.032;13.790;2023-03-17T04:15:08;9.07;;;3.30;;
76761;SDS011;65705;51.032;13.790;2023-03-17T04:17:36;9.23;;;2.92;;
76761;SDS011;65705;51.032;13.790;2023-03-17T04:20:02;9.35;;;3.08;;
76761;SDS011;65705;51.032;13.790;2023-03-17T04:22:28;8.63;;;2.72;;
76761;SDS011;65705;51.032;13.790;2023-03-17T04:24:54;11.55;;;3.47;;
76761;SDS011;65705;51.032;13.790;2023-03-17T04:27:19;8.30;;;3.58;;
76761;SDS011;65705;51.032;13.790;2023-03-17T04:29:45;8.90;;;3.42;;
76761;SDS011;65705;51.032;13.790;2023-03-17T04:32:11;7.80;;;3.28;;
76761;SDS011;65705;51.032;13.790;2023-03-17T04:34:38;10.43;;;3.25;;
76761;SDS011;65705;51.032;13.790;2023-03-17T04:37:05;7.65;;;3.17;;
76761;SDS011;65705;51.032;13.790;2023-03-17T04:39:31;9.13;;;3.35;;
76761;SDS011;65705;51.032;13.790;2023-03-17T04:41:57;8.02;;;3.50;;
76761;SDS011;65705;51.032;13.790;2023-03-17T04:44:22;8.70;;;3.25;;
76761;SDS011;65705;51.032;13.790;2023-03-17T04:46:48;8.68;;;3.35;;
76761;SDS011;65705;51.032;13.790;2023-03-17T04:49:14;7.63;;;3.30;;
76761;SDS011;65705;51.032;13.790;2023-03-17T04:51:39;10.10;;;3.40;;
76761;SDS011;65705;51.032;13.790;2023-03-17T04:54:05;10.05;;;3.38;;
76761;SDS011;65705;51.032;13.790;2023-03-17T04:56:31;8.98;;;4.43;;
76761;SDS011;65705;51.032;13.790;2023-03-17T04:58:57;8.48;;;3.25;;
76761;SDS011;65705;51.032;13.790;2023-03-17T05:01:23;10.63;;;3.42;;
76761;SDS011;65705;51.032;13.790;2023-03-17T05:03:49;8.05;;;3.35;;
76761;SDS011;65705;51.032;13.790;2023-03-17T05:06:15;8.75;;;3.67;;
76761;SDS011;65705;51.032;13.790;2023-03-17T05:08:41;8.43;;;3.58;;
76761;SDS011;65705;51.032;13.790;2023-03-17T05:11:09;6.60;;;3.13;;
76761;SDS011;65705;51.032;13.790;2023-03-17T05:13:36;12.07;;;3.70;;
76761;SDS011;65705;51.032;13.790;2023-03-17T05:16:03;9.00;;;3.30;;
76761;SDS011;65705;51.032;13.790;2023-03-17T05:18:28;7.05;;;3.03;;
76761;SDS011;65705;51.032;13.790;2023-03-17T05:20:54;11.13;;;2.72;;
76761;SDS011;65705;51.032;13.790;2023-03-17T05:23:20;7.05;;;3.20;;
76761;SDS011;65705;51.032;13.790;2023-03-17T05:25:47;8.07;;;3.55;;
76761;SDS011;65705;51.032;13.790;2023-03-17T05:28:13;6.25;;;2.50;;
76761;SDS011;65705;51.032;13.790;2023-03-17T05:30:41;7.57;;;3.50;;
76761;SDS011;65705;51.032;13.790;2023-03-17T05:33:07;6.88;;;3.30;;
76761;SDS011;65705;51.032;13.790;2023-03-17T05:35:33;6.43;;;3.03;;
76761;SDS011;65705;51.032;13.790;2023-03-17T05:37:59;9.73;;;3.13;;
76761;SDS011;65705;51.032;13.790;2023-03-17T05:40:25;11.05;;;3.78;;
76761;SDS011;65705;51.032;13.790;2023-03-17T05:42:50;9.75;;;3.63;;
76761;SDS011;65705;51.032;13.790;2023-03-17T05:45:16;13.20;;;4.60;;
76761;SDS011;65705;51.032;13.790;2023-03-17T05:47:43;7.00;;;2.88;;
76761;SDS011;65705;51.032;13.790;2023-03-17T05:50:09;8.25;;;3.15;;
76761;SDS011;65705;51.032;13.790;2023-03-17T05:52:35;12.85;;;3.28;;
76761;SDS011;65705;51.032;13.790;2023-03-17T05:55:01;8.55;;;3.13;;
76761;SDS011;65705;51.032;13.790;2023-03-17T05:57:27;4.75;;;2.78;;
76761;SDS011;65705;51.032;13.790;2023-03-17T05:59:53;7.70;;;2.72;;
76761;SDS011;65705;51.032;13.790;2023-03-17T06:02:18;7.47;;;2.78;;
76761;SDS011;65705;51.032;13.790;2023-03-17T06:04:45;10.23;;;3.63;;
76761;SDS011;65705;51.032;13.790;2023-03-17T06:07:11;8.05;;;2.97;;
76761;SDS011;65705;51.032;13.790;2023-03-17T06:09:38;6.90;;;2.80;;
76761;SDS011;65705;51.032;13.790;2023-03-17T06:12:04;10.07;;;3.20;;
76761;SDS011;65705;51.032;13.790;2023-03-17T06:14:31;10.18;;;3.13;;
76761;SDS011;65705;51.032;13.790;2023-03-17T06:16:57;13.57;;;3.65;;
76761;SDS011;65705;51.032;13.790;2023-03-17T06:19:22;8.05;;;3.20;;
76761;SDS011;65705;51.032;13.790;2023-03-17T06:21:48;8.98;;;2.80;;
76761;SDS011;65705;51.032;13.790;2023-03-17T06:24:14;12.50;;;3.67;;
76761;SDS011;65705;51.032;13.790;2023-03-17T06:26:39;7.28;;;3.05;;
76761;SDS011;65705;51.032;13.790;2023-03-17T06:29:06;7.82;;;2.67;;
76761;SDS011;65705;51.032;13.790;2023-03-17T06:31:36;12.27;;;3.33;;
76761;SDS011;65705;51.032;13.790;2023-03-17T06:34:03;9.85;;;3.20;;
76761;SDS011;65705;51.032;13.790;2023-03-17T06:36:30;9.00;;;2.83;;
76761;SDS011;65705;51.032;13.790;2023-03-17T06:38:57;12.50;;;3.28;;
76761;SDS011;65705;51.032;13.790;2023-03-17T06:41:24;11.93;;;3.08;;
76761;SDS011;65705;51.032;13.790;2023-03-17T06:43:50;8.02;;;3.50;;
76761;SDS011;65705;51.032;13.790;2023-03-17T06:46:16;12.77;;;3.15;;
76761;SDS011;65705;51.032;13.790;2023-03-17T06:48:41;9.43;;;3.13;;
76761;SDS011;65705;51.032;13.790;2023-03-17T06:51:08;14.60;;;3.10;;
76761;SDS011;65705;51.032;13.790;2023-03-17T06:53:34;7.07;;;3.03;;
76761;SDS011;65705;51.032;13.790;2023-03-17T06:56:00;7.18;;;3.33;;
76761;SDS011;65705;51.032;13.790;2023-03-17T06:58:26;7.82;;;3.00;;
76761;SDS011;65705;51.032;13.790;2023-03-17T07:00:52;9.55;;;2.72;;
76761;SDS011;65705;51.032;13.790;2023-03-17T07:03:18;13.93;;;2.90;;
76761;SDS011;65705;51.032;13.790;2023-03-17T07:05:46;9.10;;;2.97;;
76761;SDS011;65705;51.032;13.790;2023-03-17T07:08:12;10.77;;;2.72;;
76761;SDS011;65705;51.032;13.790;2023-03-17T07:10:39;10.40;;;3.25;;
76761;SDS011;65705;51.032;13.790;2023-03-17T07:13:07;13.30;;;5.97;;
76761;SDS011;65705;51.032;13.790;2023-03-17T07:15:35;10.43;;;3.25;;
76761;SDS011;65705;51.032;13.790;2023-03-17T07:18:02;6.75;;;3.03;;
76761;SDS011;65705;51.032;13.790;2023-03-17T07:20:29;6.63;;;2.33;;
76761;SDS011;65705;51.032;13.790;2023-03-17T07:22:55;11.20;;;2.75;;
76761;SDS011;65705;51.032;13.790;2023-03-17T07:25:21;7.85;;;2.67;;
76761;SDS011;65705;51.032;13.790;2023-03-17T07:27:47;7.03;;;3.17;;
76761;SDS011;65705;51.032;13.790;2023-03-17T07:30:13;9.32;;;3.03;;
76761;SDS011;65705;51.032;13.790;2023-03-17T07:35:12;5.60;;;2.55;;
76761;SDS011;65705;51.032;13.790;2023-03-17T07:37:39;10.23;;;2.55;;
76761;SDS011;65705;51.032;13.790;2023-03-17T07:40:07;6.10;;;2.67;;
76761;SDS011;65705;51.032;13.790;2023-03-17T07:42:35;6.93;;;2.42;;
76761;SDS011;65705;51.032;13.790;2023-03-17T07:45:01;7.45;;;3.25;;
76761;SDS011;65705;51.032;13.790;2023-03-17T07:47:29;6.97;;;2.53;;
76761;SDS011;65705;51.032;13.790;2023-03-17T07:49:54;7.45;;;2.58;;
76761;SDS011;65705;51.032;13.790;2023-03-17T07:52:20;7.55;;;2.95;;
76761;SDS011;65705;51.032;13.790;2023-03-17T07:54:46;6.65;;;2.65;;
76761;SDS011;65705;51.032;13.790;2023-03-17T07:57:12;7.30;;;2.63;;
76761;SDS011;65705;51.032;13.790;2023-03-17T07:59:37;6.30;;;2.67;;
76761;SDS011;65705;51.032;13.790;2023-03-17T08:02:04;8.90;;;2.80;;
76761;SDS011;65705;51.032;13.790;2023-03-17T08:04:30;7.50;;;2.63;;
76761;SDS011;65705;51.032;13.790;2023-03-17T08:06:56;11.10;;;2.95;;
76761;SDS011;65705;51.032;13.790;2023-03-17T08:09:22;9.38;;;3.08;;
76761;SDS011;65705;51.032;13.790;2023-03-17T08:11:48;7.45;;;2.92;;
76761;SDS011;65705;51.032;13.790;2023-03-17T08:14:14;8.65;;;2.60;;
76761;SDS011;65705;51.032;13.790;2023-03-17T08:16:39;5.78;;;2.22;;
76761;SDS011;65705;51.032;13.790;2023-03-17T08:19:05;7.82;;;2.67;;
76761;SDS011;65705;51.032;13.790;2023-03-17T08:21:31;9.93;;;2.70;;
76761;SDS011;65705;51.032;13.790;2023-03-17T08:23:57;11.15;;;3.10;;
76761;SDS011;65705;51.032;13.790;2023-03-17T08:26:23;8.18;;;3.33;;
76761;SDS011;65705;51.032;13.790;2023-03-17T08:28:50;10.13;;;3.08;;
76761;SDS011;65705;51.032;13.790;2023-03-17T08:31:16;7.55;;;2.55;;
76761;SDS011;65705;51.032;13.790;2023-03-17T08:33:49;10.20;;;2.70;;
76761;SDS011;65705;51.032;13.790;2023-03-17T08:36:16;9.90;;;3.03;;
76761;SDS011;65705;51.032;13.790;2023-03-17T08:38:44;7.78;;;2.58;;
76761;SDS011;65705;51.032;13.790;2023-03-17T08:41:12;9.20;;;2.60;;
76761;SDS011;65705;51.032;13.790;2023-03-17T08:43:41;9.25;;;2.60;;
76761;SDS011;65705;51.032;13.790;2023-03-17T08:46:18;5.72;;;2.13;;
76761;SDS011;65705;51.032;13.790;2023-03-17T08:48:46;9.95;;;2.83;;
76761;SDS011;65705;51.032;13.790;2023-03-17T08:51:14;7.30;;;2.42;;
76761;SDS011;65705;51.032;13.790;2023-03-17T08:53:41;8.95;;;2.60;;
76761;SDS011;65705;51.032;13.790;2023-03-17T08:56:07;5.35;;;2.67;;
76761;SDS011;65705;51.032;13.790;2023-03-17T08:58:34;7.70;;;2.50;;
76761;SDS011;65705;51.032;13.790;2023-03-17T09:01:03;6.72;;;2.80;;
76761;SDS011;65705;51.032;13.790;2023-03-17T09:03:31;10.27;;;3.20;;
76761;SDS011;65705;51.032;13.790;2023-03-17T09:05:58;6.75;;;2.38;;
76761;SDS011;65705;51.032;13.790;2023-03-17T09:08:25;8.85;;;3.38;;
76761;SDS011;65705;51.032;13.790;2023-03-17T09:10:52;9.35;;;3.08;;
76761;SDS011;65705;51.032;13.790;2023-03-17T09:13:19;11.40;;;3.65;;
76761;SDS011;65705;51.032;13.790;2023-03-17T09:15:46;8.82;;;2.78;;
76761;SDS011;65705;51.032;13.790;2023-03-17T09:18:11;10.15;;;2.80;;
76761;SDS011;65705;51.032;13.790;2023-03-17T09:20:38;9.30;;;2.45;;
76761;SDS011;65705;51.032;13.790;2023-03-17T09:23:06;10.13;;;2.75;;
76761;SDS011;65705;51.032;13.790;2023-03-17T09:25:33;9.90;;;2.95;;
76761;SDS011;65705;51.032;13.790;2023-03-17T09:28:00;7.90;;;2.58;;
76761;SDS011;65705;51.032;13.790;2023-03-17T09:30:26;6.40;;;2.60;;
76761;SDS011;65705;51.032;13.790;2023-03-17T09:32:52;9.05;;;2.58;;
76761;SDS011;65705;51.032;13.790;2023-03-17T09:35:18;7.97;;;2.67;;
76761;SDS011;65705;51.032;13.790;2023-03-17T09:37:43;6.53;;;2.67;;
76761;SDS011;65705;51.032;13.790;2023-03-17T09:40:11;9.73;;;2.63;;
76761;SDS011;65705;51.032;13.790;2023-03-17T09:45:38;9.90;;;2.53;;
76761;SDS011;65705;51.032;13.790;2023-03-17T09:48:22;6.75;;;2.28;;
76761;SDS011;65705;51.032;13.790;2023-03-17T09:51:02;5.55;;;2.22;;
76761;SDS011;65705;51.032;13.790;2023-03-17T09:56:07;5.07;;;2.40;;
76761;SDS011;65705;51.032;13.790;2023-03-17T09:58:36;5.72;;;2.20;;
76761;SDS011;65705;51.032;13.790;2023-03-17T10:01:07;7.63;;;2.30;;
76761;SDS011;65705;51.032;13.790;2023-03-17T10:03:34;8.57;;;2.65;;
76761;SDS011;65705;51.032;13.790;2023-03-17T10:07:02;7.20;;;2.55;;
76761;SDS011;65705;51.032;13.790;2023-03-17T10:09:20;8.25;;;2.22;;
76761;SDS011;65705;51.032;13.790;2023-03-17T10:12:01;5.47;;;2.30;;
76761;SDS011;65705;51.032;13.790;2023-03-17T10:14:44;5.18;;;1.98;;
76761;SDS011;65705;51.032;13.790;2023-03-17T10:17:19;5.40;;;2.15;;
76761;SDS011;65705;51.032;13.790;2023-03-17T10:19:51;4.90;;;2.30;;
76761;SDS011;65705;51.032;13.790;2023-03-17T10:22:38;5.15;;;2.22;;
76761;SDS011;65705;51.032;13.790;2023-03-17T10:25:14;7.30;;;2.67;;
76761;SDS011;65705;51.032;13.790;2023-03-17T10:27:47;10.18;;;2.90;;
76761;SDS011;65705;51.032;13.790;2023-03-17T10:30:21;6.30;;;2.45;;
76761;SDS011;65705;51.032;13.790;2023-03-17T10:32:48;8.50;;;2.92;;
76761;SDS011;65705;51.032;13.790;2023-03-17T10:35:16;7.32;;;3.10;;
76761;SDS011;65705;51.032;13.790;2023-03-17T10:37:44;8.93;;;2.70;;
76761;SDS011;65705;51.032;13.790;2023-03-17T10:40:27;10.35;;;2.30;;
76761;SDS011;65705;51.032;13.790;2023-03-17T10:43:02;5.75;;;2.30;;
76761;SDS011;65705;51.032;13.790;2023-03-17T10:45:33;5.55;;;2.45;;
76761;SDS011;65705;51.032;13.790;2023-03-17T10:48:02;7.38;;;2.53;;
76761;SDS011;65705;51.032;13.790;2023-03-17T10:50:37;6.18;;;2.83;;
76761;SDS011;65705;51.032;13.790;2023-03-17T10:53:05;6.15;;;2.20;;
76761;SDS011;65705;51.032;13.790;2023-03-17T11:00:28;15.57;;;4.72;;
76761;SDS011;65705;51.032;13.790;2023-03-17T11:03:02;10.07;;;2.13;;
76761;SDS011;65705;51.032;13.790;2023-03-17T11:05:56;6.97;;;2.60;;
76761;SDS011;65705;51.032;13.790;2023-03-17T11:08:28;8.55;;;2.40;;
76761;SDS011;65705;51.032;13.790;2023-03-17T11:10:55;5.20;;;2.10;;
76761;SDS011;65705;51.032;13.790;2023-03-17T11:13:26;6.15;;;2.30;;
76761;SDS011;65705;51.032;13.790;2023-03-17T11:16:17;6.47;;;1.92;;
76761;SDS011;65705;51.032;13.790;2023-03-17T11:18:40;5.88;;;2.10;;
76761;SDS011;65705;51.032;13.790;2023-03-17T11:21:40;7.05;;;2.10;;
76761;SDS011;65705;51.032;13.790;2023-03-17T11:24:11;5.57;;;2.72;;
76761;SDS011;65705;51.032;13.790;2023-03-17T11:38:28;6.53;;;2.45;;
76761;SDS011;65705;51.032;13.790;2023-03-17T11:40:49;16.75;;;2.67;;
76761;SDS011;65705;51.032;13.790;2023-03-17T11:49:10;6.15;;;2.22;;
76761;SDS011;65705;51.032;13.790;2023-03-17T11:54:14;7.82;;;2.35;;
76761;SDS011;65705;51.032;13.790;2023-03-17T11:56:45;9.93;;;2.65;;
76761;SDS011;65705;51.032;13.790;2023-03-17T12:04:35;13.68;;;2.70;;
76761;SDS011;65705;51.032;13.790;2023-03-17T12:07:27;6.78;;;3.10;;
76761;SDS011;65705;51.032;13.790;2023-03-17T12:12:32;10.02;;;2.80;;
76761;SDS011;65705;51.032;13.790;2023-03-17T12:15:03;5.05;;;2.42;;
76761;SDS011;65705;51.032;13.790;2023-03-17T12:17:38;6.63;;;2.83;;
76761;SDS011;65705;51.032;13.790;2023-03-17T12:20:14;7.05;;;2.55;;
76761;SDS011;65705;51.032;13.790;2023-03-17T12:22:53;6.93;;;2.78;;
76761;SDS011;65705;51.032;13.790;2023-03-17T12:25:24;9.05;;;2.78;;
76761;SDS011;65705;51.032;13.790;2023-03-17T12:30:46;7.05;;;3.35;;
76761;SDS011;65705;51.032;13.790;2023-03-17T12:36:05;7.90;;;3.15;;
76761;SDS011;65705;51.032;13.790;2023-03-17T12:38:37;9.73;;;2.78;;
76761;SDS011;65705;51.032;13.790;2023-03-17T12:43:47;8.25;;;2.90;;
76761;SDS011;65705;51.032;13.790;2023-03-17T12:46:42;15.10;;;2.97;;
76761;SDS011;65705;51.032;13.790;2023-03-17T12:54:33;8.93;;;3.20;;
76761;SDS011;65705;51.032;13.790;2023-03-17T12:57:55;7.53;;;2.80;;
76761;SDS011;65705;51.032;13.790;2023-03-17T13:00:06;10.35;;;3.03;;
76761;SDS011;65705;51.032;13.790;2023-03-17T13:03:35;7.60;;;3.70;;
76761;SDS011;65705;51.032;13.790;2023-03-17T13:05:59;8.15;;;3.30;;
76761;SDS011;65705;51.032;13.790;2023-03-17T13:08:31;7.18;;;2.78;;
76761;SDS011;65705;51.032;13.790;2023-03-17T13:11:45;6.78;;;3.20;;
76761;SDS011;65705;51.032;13.790;2023-03-17T13:17:47;13.95;;;3.65;;
76761;SDS011;65705;51.032;13.790;2023-03-17T13:35:45;12.93;;;3.72;;
76761;SDS011;65705;51.032;13.790;2023-03-17T13:49:19;8.45;;;4.00;;
76761;SDS011;65705;51.032;13.790;2023-03-17T13:51:52;14.90;;;3.75;;
76761;SDS011;65705;51.032;13.790;2023-03-17T13:54:34;10.93;;;4.40;;
76761;SDS011;65705;51.032;13.790;2023-03-17T14:00:00;8.02;;;3.65;;
76761;SDS011;65705;51.032;13.790;2023-03-17T14:02:39;9.18;;;4.22;;
76761;SDS011;65705;51.032;13.790;2023-03-17T14:05:07;10.18;;;3.80;;
76761;SDS011;65705;51.032;13.790;2023-03-17T14:07:55;9.68;;;4.20;;
76761;SDS011;65705;51.032;13.790;2023-03-17T14:10:25;15.93;;;4.68;;
76761;SDS011;65705;51.032;13.790;2023-03-17T14:15:37;7.10;;;4.32;;
76761;SDS011;65705;51.032;13.790;2023-03-17T14:21:17;10.05;;;4.78;;
76761;SDS011;65705;51.032;13.790;2023-03-17T14:23:52;11.75;;;4.53;;
76761;SDS011;65705;51.032;13.790;2023-03-17T14:26:19;12.27;;;4.50;;
76761;SDS011;65705;51.032;13.790;2023-03-17T14:28:47;9.93;;;4.00;;
76761;SDS011;65705;51.032;13.790;2023-03-17T14:31:18;8.73;;;4.10;;
76761;SDS011;65705;51.032;13.790;2023-03-17T14:33:47;10.63;;;4.55;;
76761;SDS011;65705;51.032;13.790;2023-03-17T14:36:18;11.80;;;4.03;;
76761;SDS011;65705;51.032;13.790;2023-03-17T14:38:46;12.00;;;4.40;;
76761;SDS011;65705;51.032;13.790;2023-03-17T14:41:18;14.57;;;4.60;;
76761;SDS011;65705;51.032;13.790;2023-03-17T14:43:47;11.65;;;4.03;;
76761;SDS011;65705;51.032;13.790;2023-03-17T14:48:43;9.95;;;4.20;;
76761;SDS011;65705;51.032;13.790;2023-03-17T14:53:52;16.25;;;4.55;;
76761;SDS011;65705;51.032;13.790;2023-03-17T14:56:33;10.70;;;4.60;;
76761;SDS011;65705;51.032;13.790;2023-03-17T14:59:19;9.68;;;3.92;;
76761;SDS011;65705;51.032;13.790;2023-03-17T15:01:47;11.73;;;6.55;;
76761;SDS011;65705;51.032;13.790;2023-03-17T15:04:18;13.45;;;5.40;;
76761;SDS011;65705;51.032;13.790;2023-03-17T15:06:48;8.25;;;4.28;;
76761;SDS011;65705;51.032;13.790;2023-03-17T15:09:24;13.38;;;4.88;;
76761;SDS011;65705;51.032;13.790;2023-03-17T15:12:14;12.00;;;4.93;;
76761;SDS011;65705;51.032;13.790;2023-03-17T15:14:43;11.63;;;4.57;;
76761;SDS011;65705;51.032;13.790;2023-03-17T15:19:50;11.40;;;4.72;;
76761;SDS011;65705;51.032;13.790;2023-03-17T15:22:25;10.85;;;5.28;;
76761;SDS011;65705;51.032;13.790;2023-03-17T15:25:03;14.13;;;5.00;;
76761;SDS011;65705;51.032;13.790;2023-03-17T15:27:45;9.05;;;4.25;;
76761;SDS011;65705;51.032;13.790;2023-03-17T15:30:12;15.23;;;4.57;;
76761;SDS011;65705;51.032;13.790;2023-03-17T15:32:39;9.25;;;4.45;;
76761;SDS011;65705;51.032;13.790;2023-03-17T15:35:06;12.23;;;4.95;;
76761;SDS011;65705;51.032;13.790;2023-03-17T15:37:35;10.65;;;5.53;;
76761;SDS011;65705;51.032;13.790;2023-03-17T15:40:01;12.23;;;5.55;;
76761;SDS011;65705;51.032;13.790;2023-03-17T15:42:28;12.50;;;4.70;;
76761;SDS011;65705;51.032;13.790;2023-03-17T15:44:57;12.73;;;6.03;;
76761;SDS011;65705;51.032;13.790;2023-03-17T15:47:27;11.18;;;5.55;;
76761;SDS011;65705;51.032;13.790;2023-03-17T15:50:05;11.68;;;4.65;;
76761;SDS011;65705;51.032;13.790;2023-03-17T15:52:36;10.57;;;5.38;;
76761;SDS011;65705;51.032;13.790;2023-03-17T15:55:05;9.88;;;4.38;;
76761;SDS011;65705;51.032;13.790;2023-03-17T15:57:31;11.90;;;5.25;;
76761;SDS011;65705;51.032;13.790;2023-03-17T15:59:57;10.60;;;4.97;;
76761;SDS011;65705;51.032;13.790;2023-03-17T16:04:54;14.88;;;6.00;;
76761;SDS011;65705;51.032;13.790;2023-03-17T16:07:21;19.80;;;6.60;;
76761;SDS011;65705;51.032;13.790;2023-03-17T16:09:48;15.00;;;6.80;;
76761;SDS011;65705;51.032;13.790;2023-03-17T16:12:14;12.15;;;5.28;;
76761;SDS011;65705;51.032;13.790;2023-03-17T16:14:40;10.25;;;4.50;;
76761;SDS011;65705;51.032;13.790;2023-03-17T16:17:22;10.55;;;5.18;;
76761;SDS011;65705;51.032;13.790;2023-03-17T16:19:53;10.80;;;5.53;;
76761;SDS011;65705;51.032;13.790;2023-03-17T16:25:05;9.75;;;5.50;;
76761;SDS011;65705;51.032;13.790;2023-03-17T16:27:42;10.70;;;5.72;;
76761;SDS011;65705;51.032;13.790;2023-03-17T16:30:13;11.80;;;5.93;;
76761;SDS011;65705;51.032;13.790;2023-03-17T16:32:43;12.63;;;5.53;;
76761;SDS011;65705;51.032;13.790;2023-03-17T16:35:13;9.82;;;5.28;;
76761;SDS011;65705;51.032;13.790;2023-03-17T16:37:47;14.80;;;5.68;;
76761;SDS011;65705;51.032;13.790;2023-03-17T16:40:20;11.80;;;5.63;;